Sunday, May 27, 2018, 3:24 PM GMT
Back to Local

CYOW, Ottawa Int'L. Ont.

Location: , , Canada Lat: 45.317
Local Time: 3:24 PM GMT (15:24 GMT) Lon: -75.667
Time Zone: GMT Elev: 380 ft

Show me the last for .
Show Decoded

2018-05-27 15:00 METAR CYOW 271500Z 08009KT 15SM BKN080 BKN100 16/10 A3000 RMK AC5AC2 SLP163
                 DENSITY ALT 600FT =
2018-05-27 14:00 METAR CYOW 271400Z 07005KT 15SM BKN080 15/09 A3000 RMK AC7 SLP163 DENSITY ALT
                 400FT =
2018-05-27 13:00 METAR CYOW 271300Z 07008KT 15SM BKN095 14/08 A3000 RMK AC7 SLP162 =
2018-05-27 12:00 METAR CYOW 271200Z 08010KT 15SM BKN088 BKN120 14/07 A2999 RMK AC6AC1 SLP159 =
2018-05-27 11:00 METAR CYOW 271100Z 07008KT 15SM BKN097 BKN120 13/07 A2998 RMK AC5AC2 SLP155 =
2018-05-27 10:00 METAR CYOW 271000Z 06013KT 15SM BKN130 14/07 A2996 RMK AC7 SLP147 =
2018-05-27 09:00 METAR CYOW 270900Z 06012KT 15SM SCT120 BKN140 14/07 A2996 RMK AC4AC3 SLP146
                 DENSITY ALT 400FT =
2018-05-27 08:00 METAR CYOW 270800Z 04008KT 15SM BKN120 OVC140 15/06 A2996 RMK AC6AC2 SLP148
                 DENSITY ALT 400FT =
2018-05-27 07:00 METAR CYOW 270700Z 07009KT 15SM BKN120 OVC140 16/07 A2994 RMK AC6AC2 SLP142
                 DENSITY ALT 600FT =
2018-05-27 06:00 METAR CYOW 270600Z 08010KT 15SM BKN110 BKN130 OVC220 16/11 A2994 RMK AC6AC1CI1
                 SLP142 DENSITY ALT 600FT =
2018-05-27 05:00 METAR CYOW 270500Z 06010KT 15SM SCT110 BKN180 OVC220 16/14 A2996 RMK AC4AC2CI2
                 SLP146 DENSITY ALT 600FT =
2018-05-27 04:00 METAR CYOW 270400Z 07006KT 15SM BKN120 BKN180 OVC240 17/14 A2996 RMK AC5AC2CI1
                 SLP147 DENSITY ALT 700FT =
2018-05-27 03:00 METAR CYOW 270300Z 07008KT 15SM FEW065 BKN100 BKN120 18/15 A2995 RMK SC2AC4AC1
                 SLP143 DENSITY ALT 800FT =
2018-05-27 02:00 METAR CYOW 270200Z 08007KT 15SM SCT064 BKN110 BKN250 18/16 A2994 RMK SC3AC3CI1
                 SLP142 DENSITY ALT 900FT =
2018-05-27 01:00 METAR CYOW 270100Z 08007KT 10SM BKN060 BKN100 BKN250 19/17 A2991 RMK SC5AC1CI1
                 SLP132 DENSITY ALT 1000FT =
2018-05-27 00:00 METAR CYOW 270000Z 11007KT 15SM FEW040 BKN058 BKN180 20/18 A2989 RMK CU1SC6AC1
                 CU TR SLP125 DENSITY ALT 1100FT =
2018-05-26 23:00 METAR CYOW 262300Z 09007KT 15SM FEW040 BKN060 BKN180 21/18 A2987 RMK CU1SC6AC1
                 CU TR SLP118 DENSITY ALT 1200FT =
2018-05-26 22:00 METAR CYOW 262200Z 08005KT 15SM BKN061 BKN075 21/19 A2986 RMK SC7AC1 AC TR
                 SLP113 DENSITY ALT 1300FT =
2018-05-26 21:00 METAR CYOW 262100Z 12003KT 15SM BKN054 OVC070 20/19 A2986 RMK SC7AC1 SLP113
                 DENSITY ALT 1200FT =
2018-05-26 20:00 METAR CYOW 262000Z 12005KT 15SM -RA OVC034 20/19 A2985 RMK SC8 SLP110 DENSITY
                 ALT 1200FT =
2018-05-26 19:15 METAR CYOW 261915Z 11008KT 10SM -RA OVC017 21/18 A2984 RMK SC8 SLP105 DENSITY
                 ALT 1300FT =
2018-05-26 19:00 METAR CYOW 261900Z 11004KT 15SM BKN027 OVC070 21/18 A2983 RMK SC7AC1 SLP103
                 DENSITY ALT 1300FT =
2018-05-26 18:00 METAR CYOW 261800Z VRB02KT 15SM BKN048TCU OVC070 21/18 A2982 RMK TCU6AC2 SLP098
                 DENSITY ALT 1300FT =
2018-05-26 17:00 METAR CYOW 261700Z 14005KT 050V150 15SM SCT004TCU OVC070 21/18 A2982 RMK TCU4AC4
                 SLP099 DENSITY ALT 1300FT =
2018-05-26 16:00 METAR CYOW 261600Z 10004KT 030V120 15SM SCT011 BKN025 BKN090 21/19 A2980 RMK
                 SC3SC3AC1 SLP093 DENSITY ALT 1300FT =

Support USWX by starting your Amazon purchase here.